Time;durP1;ratioP1;P1;durP2;ratioP2;P2;SDS_P1;SDS_P2;PMS_P1;PMS_P2;Temp;Humidity;BMP_temperature;BMP_pressure;BME280_temperature;BME280_humidity;BME280_pressure;Samples;Min_cycle;Max_cycle;Signal;HPM_P1;HPM_P2
2022/04/30 00:00:20;;;;;;;0.15;0.15;;;5.60;99.90;;;;;;5054332;28;20037;-89
2022/04/30 00:02:47;;;;;;;0.15;0.15;;;5.70;99.90;;;;;;5069141;28;20041;-84
2022/04/30 00:05:14;;;;;;;0.20;0.20;;;5.70;99.90;;;;;;5069961;28;20041;-89
2022/04/30 00:07:41;;;;;;;0.10;0.10;;;5.70;99.90;;;;;;5070589;28;20037;-89
2022/04/30 00:10:08;;;;;;;0.20;0.20;;;6.30;99.90;;;;;;5070579;28;20072;-89
2022/04/30 00:12:35;;;;;;;0.10;0.10;;;5.70;99.90;;;;;;5053493;28;20064;-90
2022/04/30 00:15:02;;;;;;;0.10;0.10;;;5.70;99.90;;;;;;5070188;28;20037;-89
2022/04/30 00:17:29;;;;;;;0.10;0.10;;;5.70;99.90;;;;;;5086775;28;20036;-87
2022/04/30 00:19:56;;;;;;;0.15;0.15;;;5.80;99.90;;;;;;5070668;28;20512;-88
2022/04/30 00:22:22;;;;;;;0.10;0.10;;;5.80;99.90;;;;;;5053824;28;20044;-89
2022/04/30 00:24:49;;;;;;;0.10;0.10;;;5.80;99.90;;;;;;5053399;28;20048;-84
2022/04/30 00:27:17;;;;;;;0.10;0.10;;;6.10;99.90;;;;;;5053419;28;20187;-89
2022/04/30 00:29:46;;;;;;;0.15;0.15;;;5.80;99.90;;;;;;5053685;28;20041;-83
2022/04/30 00:32:13;;;;;;;0.15;0.15;;;5.80;99.90;;;;;;5069911;28;20075;-89
2022/04/30 00:34:41;;;;;;;0.57;0.57;;;5.80;99.90;;;;;;5070492;28;20153;-89
2022/04/30 00:37:07;;;;;;;0.30;0.30;;;5.80;99.90;;;;;;5070245;28;20044;-83
2022/04/30 00:39:35;;;;;;;0.20;0.20;;;6.10;99.90;;;;;;5054357;28;20041;-89
2022/04/30 00:42:02;;;;;;;0.20;0.20;;;5.80;99.90;;;;;;5053682;28;20106;-89
2022/04/30 00:44:29;;;;;;;0.10;0.10;;;5.80;99.90;;;;;;5053496;28;20123;-83
2022/04/30 00:46:56;;;;;;;0.10;0.10;;;5.80;99.90;;;;;;5053155;28;20128;-89
2022/04/30 00:49:23;;;;;;;0.20;0.20;;;5.90;99.90;;;;;;5070133;28;20041;-89
2022/04/30 00:51:50;;;;;;;0.20;0.20;;;6.00;99.90;;;;;;5053856;28;20375;-89
2022/04/30 00:54:22;;;;;;;0.10;0.10;;;5.80;99.90;;;;;;5056223;28;20486;-83
2022/04/30 00:56:57;;;;;;;0.10;0.10;;;5.80;99.90;;;;;;5074594;28;20516;-83
2022/04/30 00:59:24;;;;;;;0.10;0.10;;;5.90;99.90;;;;;;5058572;28;20048;-89
2022/04/30 01:01:51;;;;;;;0.20;0.20;;;6.00;99.90;;;;;;5072762;28;20041;-84
2022/04/30 01:04:19;;;;;;;0.10;0.10;;;5.80;99.90;;;;;;5073816;28;20040;-83
2022/04/30 01:07:07;;;;;;;0.10;0.10;;;6.30;99.90;;;;;;5057961;28;20080;-89
2022/04/30 01:09:38;;;;;;;0.10;0.10;;;5.90;99.90;;;;;;5074467;28;20041;-89
2022/04/30 01:12:10;;;;;;;0.10;0.10;;;6.00;99.90;;;;;;5073813;28;20094;-83
2022/04/30 01:14:38;;;;;;;0.15;0.15;;;6.00;99.90;;;;;;5073704;28;20055;-83
2022/04/30 01:17:10;;;;;;;0.10;0.10;;;6.00;99.90;;;;;;5074368;28;20087;-83
2022/04/30 01:19:40;;;;;;;0.17;0.17;;;6.00;99.90;;;;;;5057483;28;20037;-90
2022/04/30 01:22:13;;;;;;;0.10;0.10;;;6.00;99.90;;;;;;5072051;28;20190;-84
2022/04/30 01:24:41;;;;;;;0.10;0.10;;;6.10;99.90;;;;;;5072906;28;20127;-84
2022/04/30 01:27:08;;;;;;;0.80;0.30;;;6.10;99.90;;;;;;5072862;28;20037;-89
2022/04/30 01:29:36;;;;;;;0.20;0.20;;;6.10;99.90;;;;;;5056922;28;20049;-83
2022/04/30 01:37:37;;;;;;;0.10;0.10;;;6.20;99.90;;;;;;5075967;28;20041;-89
2022/04/30 01:40:06;;;;;;;0.20;0.20;;;6.10;99.90;;;;;;5072745;28;20075;-83
2022/04/30 01:42:42;;;;;;;0.10;0.10;;;6.10;99.90;;;;;;5072730;28;20090;-89
2022/04/30 01:45:10;;;;;;;0.15;0.15;;;6.10;99.90;;;;;;5072241;28;20038;-87
2022/04/30 01:47:40;;;;;;;0.10;0.10;;;6.10;99.90;;;;;;5057631;28;20052;-89
2022/04/30 01:50:07;;;;;;;0.10;0.10;;;6.10;99.90;;;;;;5072986;28;20045;-83
2022/04/30 01:52:34;;;;;;;0.17;0.17;;;6.10;99.90;;;;;;5090615;28;20040;-83
2022/04/30 01:55:01;;;;;;;0.10;0.10;;;6.10;99.90;;;;;;5056737;28;20094;-88
2022/04/30 01:57:28;;;;;;;0.10;0.10;;;6.30;99.90;;;;;;5072782;28;20103;-83
2022/04/30 01:59:57;;;;;;;0.10;0.10;;;6.10;99.90;;;;;;5055602;28;20044;-83
2022/04/30 02:02:45;;;;;;;0.20;0.20;;;6.10;99.90;;;;;;5074002;28;20505;-83
2022/04/30 02:05:15;;;;;;;0.20;0.20;;;6.20;99.90;;;;;;5072164;28;20045;-83
2022/04/30 02:07:57;;;;;;;0.10;0.10;;;6.30;99.90;;;;;;5088964;28;20041;-83
2022/04/30 02:10:24;;;;;;;0.10;0.10;;;6.10;99.90;;;;;;5072788;28;20045;-90
2022/04/30 02:12:52;;;;;;;0.10;0.10;;;6.10;99.90;;;;;;5056540;28;20040;-83
2022/04/30 02:15:20;;;;;;;0.10;0.10;;;6.10;99.90;;;;;;5055177;28;20137;-83
2022/04/30 02:17:47;;;;;;;0.10;0.10;;;6.10;99.90;;;;;;5072356;28;20040;-83
2022/04/30 02:20:19;;;;;;;0.20;0.20;;;6.10;99.90;;;;;;5055563;28;20405;-83
2022/04/30 02:22:46;;;;;;;0.13;0.13;;;6.10;99.90;;;;;;5073581;28;20053;-89
2022/04/30 02:25:14;;;;;;;0.10;0.10;;;6.10;99.90;;;;;;5072420;28;20110;-83
2022/04/30 02:27:46;;;;;;;0.10;0.10;;;6.00;99.90;;;;;;5088908;28;20046;-90
2022/04/30 02:30:18;;;;;;;0.10;0.10;;;6.00;99.90;;;;;;5071465;28;20075;-84
2022/04/30 02:32:56;;;;;;;0.10;0.10;;;6.00;99.90;;;;;;5055106;28;20045;-83
2022/04/30 02:35:26;;;;;;;0.10;0.10;;;6.00;99.90;;;;;;5088316;28;20128;-90
2022/04/30 02:37:55;;;;;;;0.20;0.20;;;6.10;99.90;;;;;;5088948;28;20040;-89
2022/04/30 02:40:24;;;;;;;0.13;0.13;;;6.00;99.90;;;;;;5055786;28;20064;-89
2022/04/30 02:42:52;;;;;;;0.10;0.10;;;5.90;99.90;;;;;;5056218;28;20067;-83
2022/04/30 02:45:21;;;;;;;0.20;0.20;;;5.90;99.90;;;;;;5055277;28;20037;-90
2022/04/30 02:47:53;;;;;;;0.10;0.10;;;5.90;99.90;;;;;;5056318;28;20120;-89
2022/04/30 02:50:23;;;;;;;0.10;0.10;;;5.90;99.90;;;;;;5088052;28;20148;-83
2022/04/30 02:52:52;;;;;;;0.10;0.10;;;6.20;99.90;;;;;;5055344;28;20099;-83
2022/04/30 02:55:19;;;;;;;0.10;0.10;;;5.90;99.90;;;;;;5054599;28;20426;-83
2022/04/30 03:00:41;;;;;;;0.20;0.20;;;5.90;99.90;;;;;;5074246;28;20135;-89
2022/04/30 03:03:09;;;;;;;0.10;0.10;;;5.90;99.90;;;;;;5072983;28;20040;-84
2022/04/30 03:05:39;;;;;;;0.10;0.10;;;5.80;99.90;;;;;;5072230;28;20049;-88
2022/04/30 03:08:14;;;;;;;0.10;0.10;;;5.80;99.90;;;;;;5071224;28;20147;-86
2022/04/30 03:10:42;;;;;;;0.10;0.10;;;5.80;99.90;;;;;;5072375;28;20481;-83
2022/04/30 03:13:09;;;;;;;0.20;0.20;;;5.70;99.90;;;;;;5071292;28;20040;-84
2022/04/30 03:15:39;;;;;;;0.10;0.10;;;5.80;99.90;;;;;;5070398;28;20048;-83
2022/04/30 03:23:41;;;;;;;0.20;0.20;;;5.80;99.90;;;;;;5074320;28;20041;-89
2022/04/30 03:26:09;;;;;;;0.20;0.20;;;5.70;99.90;;;;;;5071430;28;20119;-83
2022/04/30 03:28:37;;;;;;;0.20;0.20;;;5.80;99.90;;;;;;5054407;28;20124;-89
2022/04/30 03:31:05;;;;;;;0.10;0.10;;;5.80;99.90;;;;;;5055456;28;20091;-89
2022/04/30 03:33:34;;;;;;;0.10;0.10;;;5.70;99.90;;;;;;5054550;28;20036;-88
2022/04/30 03:36:02;;;;;;;0.15;0.15;;;5.70;99.90;;;;;;5071378;28;20041;-88
2022/04/30 03:38:29;;;;;;;0.13;0.13;;;5.70;99.90;;;;;;5088302;28;20041;-89
2022/04/30 03:40:58;;;;;;;0.20;0.20;;;5.80;99.90;;;;;;5087326;28;20052;-89
2022/04/30 03:43:25;;;;;;;0.10;0.10;;;5.70;99.90;;;;;;5054781;28;20051;-89
2022/04/30 03:45:52;;;;;;;0.10;0.10;;;5.70;99.90;;;;;;5053769;28;20506;-83
2022/04/30 03:48:18;;;;;;;0.20;0.20;;;5.70;99.90;;;;;;5054406;28;20490;-89
2022/04/30 03:50:45;;;;;;;0.10;0.10;;;5.90;99.90;;;;;;5053707;28;20059;-89
2022/04/30 03:53:12;;;;;;;0.20;0.20;;;5.70;99.90;;;;;;5054562;28;20087;-84
2022/04/30 03:55:39;;;;;;;0.10;0.10;;;5.70;99.90;;;;;;5054506;28;20484;-83
2022/04/30 03:58:06;;;;;;;0.20;0.20;;;5.70;99.90;;;;;;5054409;28;20038;-89
2022/04/30 04:00:33;;;;;;;0.20;0.20;;;5.70;99.90;;;;;;5054018;28;20482;-89
2022/04/30 04:03:00;;;;;;;0.10;0.10;;;5.70;99.90;;;;;;5054814;28;20036;-89
2022/04/30 04:05:28;;;;;;;0.10;0.10;;;5.70;99.90;;;;;;5070230;28;20036;-83
2022/04/30 04:07:57;;;;;;;0.20;0.20;;;5.70;99.90;;;;;;5069427;28;20096;-90
2022/04/30 04:10:24;;;;;;;0.10;0.10;;;5.60;99.90;;;;;;5070214;28;20036;-83
2022/04/30 04:12:52;;;;;;;0.10;0.10;;;5.60;99.90;;;;;;5054293;28;20075;-83
2022/04/30 04:18:04;;;;;;;0.10;0.10;;;5.70;99.90;;;;;;5088360;28;20049;-90
2022/04/30 04:20:32;;;;;;;0.15;0.15;;;5.70;99.90;;;;;;5087138;28;20041;-83
2022/04/30 04:23:00;;;;;;;0.10;0.10;;;5.70;99.90;;;;;;5054054;28;20131;-89
2022/04/30 04:28:15;;;;;;;0.20;0.20;;;5.70;99.90;;;;;;5074039;28;20092;-83
2022/04/30 04:30:42;;;;;;;0.20;0.20;;;5.70;99.90;;;;;;5054907;28;20041;-89
2022/04/30 04:33:08;;;;;;;0.20;0.20;;;5.80;99.90;;;;;;5071487;28;20082;-89
2022/04/30 04:35:35;;;;;;;0.15;0.15;;;5.70;99.90;;;;;;5070587;28;20044;-89
2022/04/30 04:38:01;;;;;;;0.20;0.20;;;6.10;99.90;;;;;;5070047;28;20040;-83
2022/04/30 04:40:28;;;;;;;0.10;0.10;;;5.80;99.90;;;;;;5053100;28;20048;-90
2022/04/30 04:42:55;;;;;;;0.10;0.10;;;6.10;99.90;;;;;;5053375;28;20045;-83
2022/04/30 04:45:23;;;;;;;0.15;0.15;;;5.80;99.90;;;;;;5053689;28;20041;-89
2022/04/30 04:47:50;;;;;;;0.10;0.10;;;5.80;99.90;;;;;;5087239;28;20037;-83
2022/04/30 04:50:18;;;;;;;0.13;0.13;;;5.80;99.90;;;;;;5053419;28;20512;-89
2022/04/30 04:52:45;;;;;;;0.20;0.20;;;5.80;99.90;;;;;;5070856;28;20127;-84
2022/04/30 04:55:12;;;;;;;0.17;0.17;;;6.30;99.90;;;;;;5052964;28;20044;-83
2022/04/30 04:57:39;;;;;;;0.10;0.10;;;6.10;99.90;;;;;;5069773;28;20116;-83
2022/04/30 05:00:08;;;;;;;0.20;0.20;;;5.80;99.90;;;;;;5086716;28;20413;-90
2022/04/30 05:02:36;;;;;;;0.10;0.10;;;5.80;99.90;;;;;;5068887;28;20052;-83
2022/04/30 05:05:03;;;;;;;0.10;0.10;;;5.90;99.90;;;;;;5052632;28;20143;-89
2022/04/30 05:07:30;;;;;;;0.10;0.10;;;5.90;99.90;;;;;;5085769;28;20040;-84
2022/04/30 05:09:57;;;;;;;0.10;0.10;;;5.90;99.90;;;;;;5053281;28;20405;-88
2022/04/30 05:12:24;;;;;;;0.15;0.15;;;5.90;99.90;;;;;;5069691;28;20033;-83
2022/04/30 05:14:53;;;;;;;0.13;0.13;;;6.10;99.90;;;;;;5053487;28;20540;-83
2022/04/30 05:17:21;;;;;;;0.10;0.10;;;5.90;99.90;;;;;;5053825;28;20523;-89
2022/04/30 05:19:47;;;;;;;0.20;0.20;;;6.00;99.90;;;;;;5069363;28;20417;-89
2022/04/30 05:22:14;;;;;;;0.10;0.10;;;6.10;99.90;;;;;;5054047;28;20056;-83
2022/04/30 05:24:41;;;;;;;0.20;0.20;;;6.00;99.90;;;;;;5085483;28;20098;-83
2022/04/30 05:27:08;;;;;;;0.10;0.10;;;6.10;99.90;;;;;;5052526;28;20045;-83
2022/04/30 05:29:35;;;;;;;0.20;0.20;;;6.10;99.90;;;;;;5052376;28;20468;-90
2022/04/30 05:32:03;;;;;;;0.20;0.20;;;6.10;99.90;;;;;;5070024;28;20088;-83
2022/04/30 05:34:29;;;;;;;0.10;0.10;;;6.20;99.90;;;;;;5052836;28;20502;-90
2022/04/30 05:36:56;;;;;;;0.20;0.20;;;6.20;99.90;;;;;;5053912;28;20041;-89
2022/04/30 05:39:23;;;;;;;0.10;0.10;;;6.30;99.90;;;;;;5055360;28;20110;-89
2022/04/30 05:41:49;;;;;;;0.10;0.10;;;6.40;99.90;;;;;;5073988;28;20125;-90
2022/04/30 05:44:16;;;;;;;0.10;0.10;;;6.40;99.90;;;;;;5056037;28;20399;-89
2022/04/30 05:46:43;;;;;;;0.20;0.20;;;6.40;99.90;;;;;;5072618;28;20044;-89
2022/04/30 05:49:09;;;;;;;0.20;0.20;;;6.50;99.90;;;;;;5056950;28;20052;-90
2022/04/30 05:51:36;;;;;;;0.10;0.10;;;6.60;99.90;;;;;;5056116;28;20409;-83
2022/04/30 05:54:03;;;;;;;0.10;0.10;;;6.90;99.90;;;;;;5072892;28;20049;-84
2022/04/30 05:56:30;;;;;;;0.10;0.10;;;6.70;99.90;;;;;;5056683;28;20091;-89
2022/04/30 05:58:59;;;;;;;0.10;0.10;;;6.80;99.90;;;;;;5056849;28;20498;-83
2022/04/30 06:01:26;;;;;;;0.20;0.20;;;6.90;99.90;;;;;;5056739;28;20565;-83
2022/04/30 06:03:53;;;;;;;0.20;0.20;;;7.00;99.90;;;;;;5055508;28;20182;-90
2022/04/30 06:06:20;;;;;;;0.10;0.10;;;7.10;99.90;;;;;;5057093;28;20074;-83
2022/04/30 06:08:47;;;;;;;0.10;0.10;;;7.20;99.90;;;;;;5057109;28;20048;-89
2022/04/30 06:11:14;;;;;;;0.10;0.10;;;7.30;99.90;;;;;;5056827;28;20401;-89
2022/04/30 06:13:41;;;;;;;0.10;0.10;;;7.40;99.90;;;;;;5056028;28;20041;-89
2022/04/30 06:16:07;;;;;;;0.10;0.10;;;7.70;99.90;;;;;;5056024;28;20033;-89
2022/04/30 06:18:34;;;;;;;0.10;0.10;;;7.60;99.90;;;;;;5089005;28;20128;-84
2022/04/30 06:21:01;;;;;;;0.22;0.22;;;7.80;99.90;;;;;;5055691;28;20048;-89
2022/04/30 06:23:28;;;;;;;0.10;0.10;;;7.90;99.90;;;;;;5056344;28;20044;-84
2022/04/30 06:25:54;;;;;;;0.10;0.10;;;8.00;99.90;;;;;;5056274;28;20071;-89
2022/04/30 06:28:21;;;;;;;0.10;0.10;;;8.00;99.90;;;;;;5055831;28;20041;-89
2022/04/30 06:30:48;;;;;;;0.10;0.10;;;8.10;99.90;;;;;;5054695;28;20059;-89
2022/04/30 06:33:14;;;;;;;0.10;0.10;;;8.20;99.90;;;;;;5055362;28;20044;-83
2022/04/30 06:35:43;;;;;;;0.10;0.10;;;8.30;99.90;;;;;;5072238;28;20037;-84
2022/04/30 06:38:11;;;;;;;0.10;0.10;;;8.40;99.90;;;;;;5072309;28;20076;-83
2022/04/30 06:40:38;;;;;;;0.20;0.20;;;8.50;99.90;;;;;;5072418;28;20036;-83
2022/04/30 06:43:04;;;;;;;0.10;0.10;;;8.50;99.90;;;;;;5054968;28;20139;-83
2022/04/30 06:45:32;;;;;;;0.10;0.10;;;8.60;99.90;;;;;;5071165;28;20037;-83
2022/04/30 06:47:59;;;;;;;0.10;0.10;;;8.60;99.90;;;;;;5054711;28;20041;-84
2022/04/30 06:50:25;;;;;;;0.10;0.10;;;8.70;99.90;;;;;;5086713;28;20065;-83
2022/04/30 06:58:23;;;;;;;0.10;0.10;;;8.90;99.90;;;;;;5073939;28;20052;-83
2022/04/30 07:03:22;;;;;;;0.10;0.10;;;8.90;99.90;;;;;;5071649;28;20064;-83
2022/04/30 07:05:57;;;;;;;0.10;0.10;;;9.00;99.90;;;;;;5054227;28;20410;-89
2022/04/30 07:08:23;;;;;;;0.10;0.10;;;9.00;99.90;;;;;;5072057;28;20036;-84
2022/04/30 07:10:50;;;;;;;0.10;0.10;;;9.00;99.90;;;;;;5070798;28;20044;-89
2022/04/30 07:13:17;;;;;;;0.10;0.10;;;9.10;99.90;;;;;;5055296;28;20040;-89
2022/04/30 07:15:43;;;;;;;0.10;0.10;;;9.10;99.90;;;;;;5054443;28;20037;-89
2022/04/30 07:18:10;;;;;;;0.10;0.10;;;9.20;99.90;;;;;;5071168;28;20068;-89
2022/04/30 07:20:37;;;;;;;2.17;0.30;;;9.30;99.90;;;;;;5054673;28;20044;-86
2022/04/30 07:23:03;;;;;;;0.10;0.10;;;9.40;99.90;;;;;;5071019;28;20103;-90
2022/04/30 07:25:30;;;;;;;0.10;0.10;;;9.40;99.90;;;;;;5071787;28;20049;-84
2022/04/30 07:27:57;;;;;;;0.10;0.10;;;9.60;99.90;;;;;;5070127;28;20577;-84
2022/04/30 07:30:26;;;;;;;0.15;0.15;;;9.70;99.90;;;;;;5055297;28;20099;-84
2022/04/30 07:32:53;;;;;;;0.10;0.10;;;9.70;99.90;;;;;;5070658;28;20037;-89
2022/04/30 07:35:20;;;;;;;0.10;0.10;;;9.70;99.90;;;;;;5054245;28;20383;-84
2022/04/30 07:37:46;;;;;;;0.10;0.10;;;9.80;99.90;;;;;;5054438;28;20073;-84
2022/04/30 07:40:13;;;;;;;0.10;0.10;;;9.90;99.90;;;;;;5071555;28;20131;-90
2022/04/30 07:42:40;;;;;;;0.10;0.10;;;9.90;99.90;;;;;;5055442;28;20061;-87
2022/04/30 07:45:10;;;;;;;0.10;0.10;;;9.90;99.90;;;;;;5054082;28;20052;-84
2022/04/30 07:47:37;;;;;;;0.10;0.10;;;10.00;99.90;;;;;;5055195;28;20082;-89
2022/04/30 07:50:04;;;;;;;0.10;0.10;;;10.20;99.90;;;;;;5070861;28;20444;-89
2022/04/30 07:52:32;;;;;;;0.10;0.10;;;10.20;99.90;;;;;;5071641;28;20040;-83
2022/04/30 07:55:02;;;;;;;0.10;0.10;;;10.30;99.90;;;;;;5054180;28;20033;-89
2022/04/30 07:57:28;;;;;;;0.70;0.30;;;10.50;99.90;;;;;;5087103;28;20036;-89
2022/04/30 07:59:55;;;;;;;0.10;0.10;;;10.50;99.90;;;;;;5052994;28;20044;-89
2022/04/30 08:02:22;;;;;;;0.10;0.10;;;10.90;99.90;;;;;;5054228;28;20041;-84
2022/04/30 08:04:48;;;;;;;0.10;0.10;;;10.70;99.90;;;;;;5054016;28;20482;-84
2022/04/30 08:07:15;;;;;;;0.10;0.10;;;10.80;99.90;;;;;;5053971;28;20044;-89
2022/04/30 08:09:42;;;;;;;0.10;0.10;;;10.90;99.90;;;;;;5054716;28;20037;-84
2022/04/30 08:12:11;;;;;;;0.00;0.00;;;11.00;99.90;;;;;;5054203;28;20033;-89
2022/04/30 08:14:38;;;;;;;0.10;0.10;;;10.90;99.90;;;;;;5070169;28;20422;-84
2022/04/30 08:17:05;;;;;;;0.10;0.10;;;11.10;99.90;;;;;;5053160;28;20045;-84
2022/04/30 08:19:32;;;;;;;0.00;0.00;;;11.10;99.90;;;;;;5053865;28;20037;-84
2022/04/30 08:21:58;;;;;;;0.10;0.10;;;11.20;99.90;;;;;;5054008;28;20556;-89
2022/04/30 08:24:25;;;;;;;0.10;0.10;;;11.30;99.90;;;;;;5053502;28;20049;-88
2022/04/30 08:26:52;;;;;;;0.10;0.10;;;11.30;99.90;;;;;;5053997;28;20044;-89
2022/04/30 08:29:19;;;;;;;0.10;0.10;;;11.40;99.90;;;;;;5070401;28;20076;-89
2022/04/30 08:31:46;;;;;;;0.00;0.00;;;11.50;99.90;;;;;;5086416;28;20050;-85
2022/04/30 08:34:12;;;;;;;0.00;0.00;;;11.60;99.90;;;;;;5054009;28;20179;-89
2022/04/30 08:36:39;;;;;;;0.10;0.10;;;11.60;99.90;;;;;;5053793;28;20399;-84
2022/04/30 08:39:06;;;;;;;0.38;0.30;;;11.70;99.90;;;;;;5052542;28;20996;-84
2022/04/30 08:41:32;;;;;;;0.03;0.03;;;11.70;99.90;;;;;;5053683;28;20041;-89
2022/04/30 08:43:59;;;;;;;0.10;0.10;;;11.80;99.90;;;;;;5086817;28;20047;-89
2022/04/30 08:46:26;;;;;;;0.10;0.10;;;11.80;99.90;;;;;;5085782;28;20099;-89
2022/04/30 08:48:53;;;;;;;0.10;0.10;;;11.80;99.90;;;;;;5053575;28;20040;-84
2022/04/30 08:51:19;;;;;;;0.00;0.00;;;11.70;99.90;;;;;;5052806;28;20048;-88
2022/04/30 08:53:46;;;;;;;0.00;0.00;;;11.80;99.90;;;;;;5053093;28;20135;-89
2022/04/30 08:56:13;;;;;;;0.10;0.10;;;11.90;99.90;;;;;;5052719;28;20033;-89
2022/04/30 08:58:40;;;;;;;0.10;0.10;;;11.90;99.90;;;;;;5069072;28;20052;-84
2022/04/30 09:01:10;;;;;;;0.10;0.10;;;11.90;99.90;;;;;;5054004;28;20051;-84
2022/04/30 09:03:37;;;;;;;0.00;0.00;;;11.90;99.90;;;;;;5053734;28;20059;-84
2022/04/30 09:06:05;;;;;;;0.03;0.03;;;11.90;99.90;;;;;;5069806;28;20123;-84
2022/04/30 09:08:32;;;;;;;0.03;0.03;;;11.90;99.90;;;;;;5069441;28;20045;-84
2022/04/30 09:11:07;;;;;;;0.20;0.20;;;12.00;99.90;;;;;;5052502;28;20041;-84
2022/04/30 09:13:46;;;;;;;0.00;0.00;;;12.00;99.90;;;;;;5086611;28;20375;-84
2022/04/30 09:16:21;;;;;;;0.10;0.10;;;12.00;99.90;;;;;;5057021;28;20037;-89
2022/04/30 09:18:55;;;;;;;0.00;0.00;;;12.00;99.90;;;;;;5074811;28;20074;-88
2022/04/30 09:21:23;;;;;;;0.05;0.05;;;12.00;99.90;;;;;;5057481;28;20059;-89
2022/04/30 09:23:49;;;;;;;0.00;0.00;;;11.90;99.90;;;;;;5089657;28;20037;-84
2022/04/30 09:26:16;;;;;;;0.00;0.00;;;11.90;99.90;;;;;;5073393;28;20067;-89
2022/04/30 09:28:46;;;;;;;0.10;0.10;;;11.90;99.90;;;;;;5057744;28;20041;-89
2022/04/30 09:31:16;;;;;;;0.13;0.13;;;12.00;99.90;;;;;;5073394;28;20535;-89
2022/04/30 09:33:59;;;;;;;0.00;0.00;;;12.10;99.90;;;;;;5072808;28;20037;-84
2022/04/30 09:39:17;;;;;;;0.10;0.10;;;12.30;99.90;;;;;;5075470;28;20414;-84
2022/04/30 09:41:44;;;;;;;0.00;0.00;;;12.40;99.90;;;;;;5073041;28;20045;-89
2022/04/30 09:44:14;;;;;;;0.00;0.00;;;12.50;99.90;;;;;;5055586;28;20045;-84
2022/04/30 09:46:41;;;;;;;0.10;0.10;;;12.60;99.90;;;;;;5056816;28;20036;-84
2022/04/30 09:55:03;;;;;;;0.00;0.00;;;12.60;99.90;;;;;;5166357;27;20736;-82
2022/04/30 09:57:34;;;;;;;0.00;0.00;;;12.70;99.90;;;;;;5165364;27;20040;-82
2022/04/30 10:00:03;;;;;;;0.10;0.10;;;12.60;99.90;;;;;;5130962;28;20035;-82
2022/04/30 10:02:31;;;;;;;0.10;0.10;;;12.80;99.90;;;;;;5131255;28;20545;-84
2022/04/30 10:05:02;;;;;;;0.15;0.05;;;12.80;99.90;;;;;;5130834;28;20045;-85
2022/04/30 10:07:33;;;;;;;0.00;0.00;;;12.90;99.90;;;;;;5148750;28;20118;-84
2022/04/30 10:10:16;;;;;;;0.10;0.10;;;12.90;99.90;;;;;;5148182;28;20438;-85
2022/04/30 10:12:54;;;;;;;0.10;0.10;;;12.80;99.90;;;;;;5148608;28;20385;-82
2022/04/30 10:15:37;;;;;;;0.00;0.00;;;13.00;99.90;;;;;;5165422;28;20096;-82
2022/04/30 10:18:07;;;;;;;0.10;0.10;;;13.20;99.90;;;;;;5147465;28;20043;-82
2022/04/30 10:20:35;;;;;;;0.00;0.00;;;13.10;99.90;;;;;;5166618;27;20043;-87
2022/04/30 10:23:04;;;;;;;0.10;0.10;;;13.30;99.90;;;;;;5131294;28;20044;-83
2022/04/30 10:25:40;;;;;;;0.10;0.10;;;13.20;99.90;;;;;;5148481;28;20545;-87
2022/04/30 10:28:33;;;;;;;0.00;0.00;;;13.10;99.90;;;;;;5149209;28;20031;-82
2022/04/30 10:31:03;;;;;;;0.10;0.10;;;12.90;99.90;;;;;;5143847;28;20058;-83
2022/04/30 10:33:30;;;;;;;0.00;0.00;;;13.00;99.90;;;;;;5148469;28;20078;-88
2022/04/30 10:36:08;;;;;;;0.10;0.10;;;13.10;99.90;;;;;;5148403;28;20040;-82
2022/04/30 10:38:35;;;;;;;0.10;0.10;;;13.10;99.90;;;;;;5148054;28;20092;-87
2022/04/30 10:41:04;;;;;;;0.00;0.00;;;13.00;99.90;;;;;;5147721;28;20040;-83
2022/04/30 10:43:36;;;;;;;0.00;0.00;;;13.00;99.90;;;;;;5148617;28;20047;-82
2022/04/30 10:46:21;;;;;;;0.03;0.03;;;12.90;99.90;;;;;;5130367;28;20036;-87
2022/04/30 10:48:48;;;;;;;0.05;0.05;;;12.80;99.90;;;;;;5148231;28;20096;-87
2022/04/30 10:51:29;;;;;;;0.10;0.10;;;12.80;99.90;;;;;;5130456;28;20044;-82
2022/04/30 10:53:58;;;;;;;0.10;0.10;;;12.70;99.90;;;;;;5147630;28;20062;-88
2022/04/30 10:56:28;;;;;;;0.00;0.00;;;12.80;99.90;;;;;;5147922;28;20043;-82
2022/04/30 10:58:55;;;;;;;0.00;0.00;;;12.70;99.90;;;;;;5115018;28;20035;-88
2022/04/30 11:01:22;;;;;;;0.10;0.10;;;12.60;99.90;;;;;;5146640;28;20031;-83
2022/04/30 11:03:50;;;;;;;0.08;0.08;;;12.60;99.90;;;;;;5130699;28;20043;-82
2022/04/30 11:06:21;;;;;;;0.00;0.00;;;12.50;99.90;;;;;;5100179;28;20396;-82
2022/04/30 11:09:02;;;;;;;0.10;0.10;;;12.40;99.90;;;;;;5133687;28;20043;-82
2022/04/30 11:11:29;;;;;;;0.08;0.08;;;12.30;99.90;;;;;;5133095;28;20105;-87
2022/04/30 11:14:00;;;;;;;0.00;0.00;;;12.30;99.90;;;;;;5132760;28;20191;-88
2022/04/30 11:16:31;;;;;;;0.00;0.00;;;12.20;99.90;;;;;;5133524;28;20035;-82
2022/04/30 11:18:59;;;;;;;0.00;0.00;;;12.20;99.90;;;;;;5133657;28;20378;-87
2022/04/30 11:21:31;;;;;;;0.10;0.10;;;12.30;99.90;;;;;;5150350;28;20108;-87
2022/04/30 11:23:58;;;;;;;0.00;0.00;;;12.40;99.90;;;;;;5099233;28;20039;-88
2022/04/30 11:26:25;;;;;;;0.00;0.00;;;12.40;99.90;;;;;;5132862;28;20039;-87
2022/04/30 11:28:51;;;;;;;0.10;0.10;;;12.40;99.90;;;;;;5099367;28;20040;-82
2022/04/30 11:31:19;;;;;;;0.20;0.15;;;12.30;99.90;;;;;;5099521;28;20047;-82
2022/04/30 11:33:46;;;;;;;0.10;0.10;;;12.30;99.90;;;;;;5132583;28;20530;-83
2022/04/30 11:36:13;;;;;;;0.05;0.05;;;12.40;99.90;;;;;;5133624;28;20035;-88
2022/04/30 11:38:48;;;;;;;0.05;0.05;;;12.40;99.90;;;;;;5116135;28;20075;-88
2022/04/30 11:41:15;;;;;;;0.00;0.00;;;12.60;99.90;;;;;;5133552;28;20047;-88
2022/04/30 11:43:42;;;;;;;0.08;0.08;;;12.80;99.90;;;;;;5100098;28;20112;-87
2022/04/30 11:46:09;;;;;;;0.10;0.10;;;12.80;99.90;;;;;;5098854;28;20039;-83
2022/04/30 11:48:39;;;;;;;0.00;0.00;;;12.80;99.90;;;;;;5099129;28;20099;-82
2022/04/30 11:51:10;;;;;;;0.00;0.00;;;12.90;99.90;;;;;;5115667;28;20047;-82
2022/04/30 11:53:37;;;;;;;0.00;0.00;;;12.90;99.90;;;;;;5115106;28;20056;-87
2022/04/30 11:56:05;;;;;;;0.00;0.00;;;12.90;99.90;;;;;;5116071;28;20130;-87
2022/04/30 11:58:42;;;;;;;0.00;0.00;;;12.90;99.90;;;;;;5115583;28;20036;-88
2022/04/30 12:01:20;;;;;;;0.00;0.00;;;12.90;99.90;;;;;;5115469;28;20041;-82
2022/04/30 12:03:53;;;;;;;0.00;0.00;;;12.90;99.90;;;;;;5132571;28;20066;-88
2022/04/30 12:06:20;;;;;;;0.10;0.10;;;12.80;99.90;;;;;;5131953;28;20511;-82
2022/04/30 12:08:46;;;;;;;0.00;0.00;;;12.70;99.90;;;;;;5115537;28;20683;-82
2022/04/30 12:11:13;;;;;;;0.00;0.00;;;12.80;99.90;;;;;;5131669;28;20092;-82
2022/04/30 12:13:40;;;;;;;0.00;0.00;;;12.80;99.90;;;;;;5098715;28;20046;-88
2022/04/30 12:16:08;;;;;;;0.00;0.00;;;12.80;99.90;;;;;;5097729;28;20122;-82
2022/04/30 12:27:04;;;;;;;0.10;0.10;;;12.70;99.90;;;;;;5135401;28;20047;-87
2022/04/30 12:29:32;;;;;;;0.10;0.10;;;12.70;99.90;;;;;;5116140;28;20122;-87
2022/04/30 12:32:03;;;;;;;0.00;0.00;;;12.70;99.90;;;;;;5149325;28;20101;-82
2022/04/30 12:34:38;;;;;;;0.00;0.00;;;12.70;99.90;;;;;;5114621;28;20040;-82
2022/04/30 12:37:05;;;;;;;0.00;0.00;;;12.70;99.90;;;;;;5131873;28;20168;-82
2022/04/30 12:39:32;;;;;;;0.10;0.10;;;12.70;99.90;;;;;;5131335;28;20165;-82
2022/04/30 12:41:59;;;;;;;0.00;0.00;;;12.70;99.90;;;;;;5131351;28;20039;-82
2022/04/30 12:44:27;;;;;;;0.00;0.00;;;12.70;99.90;;;;;;5115694;28;20090;-87
2022/04/30 12:46:54;;;;;;;0.28;0.20;;;12.90;99.90;;;;;;5131621;28;20527;-82
2022/04/30 12:49:21;;;;;;;0.00;0.00;;;13.00;99.90;;;;;;5114091;28;20035;-82
2022/04/30 12:51:49;;;;;;;0.00;0.00;;;13.00;99.90;;;;;;5116220;28;20093;-82
2022/04/30 12:54:16;;;;;;;0.00;0.00;;;13.10;99.90;;;;;;5115397;28;20112;-85
2022/04/30 12:56:44;;;;;;;0.00;0.00;;;13.00;99.90;;;;;;5098869;28;20047;-82
2022/04/30 12:59:12;;;;;;;0.00;0.00;;;13.10;99.90;;;;;;5114446;28;20074;-88
2022/04/30 13:01:40;;;;;;;0.00;0.00;;;13.10;99.90;;;;;;5114909;28;20031;-88
2022/04/30 13:04:07;;;;;;;0.00;0.00;;;13.10;99.90;;;;;;5115138;28;20096;-87
2022/04/30 13:06:35;;;;;;;0.00;0.00;;;13.20;99.90;;;;;;5131494;28;20039;-83
2022/04/30 13:14:41;;;;;;;0.08;0.08;;;13.30;99.90;;;;;;5120320;28;20043;-88
2022/04/30 13:17:08;;;;;;;0.00;0.00;;;13.40;99.90;;;;;;5097661;28;20044;-88
2022/04/30 13:19:35;;;;;;;0.00;0.00;;;13.50;99.90;;;;;;5131242;28;20036;-83
2022/04/30 13:22:02;;;;;;;0.10;0.10;;;13.50;99.90;;;;;;5114304;28;20184;-83
2022/04/30 13:24:29;;;;;;;0.00;0.00;;;13.50;99.90;;;;;;5097504;28;20043;-83
2022/04/30 13:27:01;;;;;;;0.00;0.00;;;13.60;99.90;;;;;;5099837;28;20042;-83
2022/04/30 13:29:28;;;;;;;0.00;0.00;;;13.60;99.90;;;;;;5130891;28;20039;-83
2022/04/30 13:31:55;;;;;;;0.00;0.00;;;13.50;99.90;;;;;;5113660;28;20140;-83
2022/04/30 13:34:22;;;;;;;0.65;0.65;;;13.50;99.90;;;;;;5113609;28;20043;-84
2022/04/30 13:36:49;;;;;;;0.03;0.03;;;13.60;99.90;;;;;;5096811;28;20043;-83
2022/04/30 13:39:16;;;;;;;0.10;0.10;;;13.60;99.90;;;;;;5148280;28;20118;-83
2022/04/30 13:41:42;;;;;;;0.03;0.03;;;13.70;99.90;;;;;;5113509;28;20050;-88
2022/04/30 13:44:09;;;;;;;0.20;0.20;;;13.60;99.90;;;;;;5114330;28;20074;-88
2022/04/30 13:46:39;;;;;;;0.10;0.10;;;13.70;99.90;;;;;;5113872;28;20047;-83
2022/04/30 13:49:06;;;;;;;0.00;0.00;;;13.60;99.90;;;;;;5130557;28;20039;-88